Terminal Aerodrome Forecast
Issued by NWS

Home | Current Version | Previous Version | Text Only | Print | Product List | Glossary On
Versions: 1 2 3 4 5 6 7 8 9 10 11 12 13 14 15 16 17 18 19 20
000
FTUS44 KTSA 011700
TAFRVS
TAF
KRVS 011740Z 0118/0218 02005KT P6SM SCT008 BKN012
     FM020000 01004KT P6SM BKN022
     FM021500 05007KT P6SM SCT010 BKN020=

USA.gov is the U.S. government's official web portal to all federal, state and local government web resources and services.